sensor_id;sensor_type;location;lat;lon;timestamp;P1;durP1;ratioP1;P2;durP2;ratioP2
3274;SDS011;1649;53.672;10.064;2023-05-07T00:00:32;20.00;;;13.27;;
3274;SDS011;1649;53.672;10.064;2023-05-07T00:02:58;20.70;;;13.93;;
3274;SDS011;1649;53.672;10.064;2023-05-07T00:05:24;22.30;;;14.50;;
3274;SDS011;1649;53.672;10.064;2023-05-07T00:07:49;20.90;;;13.70;;
3274;SDS011;1649;53.672;10.064;2023-05-07T00:10:17;18.87;;;13.03;;
3274;SDS011;1649;53.672;10.064;2023-05-07T00:12:43;19.17;;;12.77;;
3274;SDS011;1649;53.672;10.064;2023-05-07T00:15:08;19.67;;;12.47;;
3274;SDS011;1649;53.672;10.064;2023-05-07T00:17:34;18.40;;;13.10;;
3274;SDS011;1649;53.672;10.064;2023-05-07T00:20:00;21.83;;;13.93;;
3274;SDS011;1649;53.672;10.064;2023-05-07T00:22:26;17.20;;;12.60;;
3274;SDS011;1649;53.672;10.064;2023-05-07T00:24:51;22.83;;;13.40;;
3274;SDS011;1649;53.672;10.064;2023-05-07T00:27:17;20.30;;;14.50;;
3274;SDS011;1649;53.672;10.064;2023-05-07T00:29:42;18.77;;;13.70;;
3274;SDS011;1649;53.672;10.064;2023-05-07T00:32:08;21.50;;;13.53;;
3274;SDS011;1649;53.672;10.064;2023-05-07T00:34:33;23.30;;;15.37;;
3274;SDS011;1649;53.672;10.064;2023-05-07T00:36:59;22.17;;;15.30;;
3274;SDS011;1649;53.672;10.064;2023-05-07T00:39:26;25.40;;;17.57;;
3274;SDS011;1649;53.672;10.064;2023-05-07T00:41:51;23.10;;;16.10;;
3274;SDS011;1649;53.672;10.064;2023-05-07T00:44:17;23.77;;;15.90;;
3274;SDS011;1649;53.672;10.064;2023-05-07T00:46:43;24.70;;;15.47;;
3274;SDS011;1649;53.672;10.064;2023-05-07T00:49:09;22.20;;;16.30;;
3274;SDS011;1649;53.672;10.064;2023-05-07T00:51:35;20.97;;;14.50;;
3274;SDS011;1649;53.672;10.064;2023-05-07T00:54:02;23.17;;;15.37;;
3274;SDS011;1649;53.672;10.064;2023-05-07T00:56:28;20.90;;;14.30;;
3274;SDS011;1649;53.672;10.064;2023-05-07T00:58:53;22.37;;;13.97;;
3274;SDS011;1649;53.672;10.064;2023-05-07T01:01:19;21.97;;;14.77;;
3274;SDS011;1649;53.672;10.064;2023-05-07T01:03:45;19.50;;;13.13;;
3274;SDS011;1649;53.672;10.064;2023-05-07T01:06:10;20.17;;;14.47;;
3274;SDS011;1649;53.672;10.064;2023-05-07T01:08:38;22.57;;;14.57;;
3274;SDS011;1649;53.672;10.064;2023-05-07T01:11:06;18.80;;;12.90;;
3274;SDS011;1649;53.672;10.064;2023-05-07T01:13:32;19.87;;;14.20;;
3274;SDS011;1649;53.672;10.064;2023-05-07T01:15:59;23.27;;;14.53;;
3274;SDS011;1649;53.672;10.064;2023-05-07T01:18:25;21.90;;;15.30;;
3274;SDS011;1649;53.672;10.064;2023-05-07T01:20:51;23.60;;;14.53;;
3274;SDS011;1649;53.672;10.064;2023-05-07T01:23:17;19.87;;;14.10;;
3274;SDS011;1649;53.672;10.064;2023-05-07T01:25:43;18.50;;;14.40;;
3274;SDS011;1649;53.672;10.064;2023-05-07T01:28:15;21.20;;;14.10;;
3274;SDS011;1649;53.672;10.064;2023-05-07T01:30:45;21.63;;;14.57;;
3274;SDS011;1649;53.672;10.064;2023-05-07T01:33:15;21.10;;;13.73;;
3274;SDS011;1649;53.672;10.064;2023-05-07T01:35:46;20.50;;;14.10;;
3274;SDS011;1649;53.672;10.064;2023-05-07T01:38:13;20.07;;;13.10;;
3274;SDS011;1649;53.672;10.064;2023-05-07T01:40:39;20.20;;;13.50;;
3274;SDS011;1649;53.672;10.064;2023-05-07T01:43:05;20.57;;;13.43;;
3274;SDS011;1649;53.672;10.064;2023-05-07T01:45:31;17.60;;;13.07;;
3274;SDS011;1649;53.672;10.064;2023-05-07T01:47:59;21.00;;;12.73;;
3274;SDS011;1649;53.672;10.064;2023-05-07T01:50:25;18.33;;;10.90;;
3274;SDS011;1649;53.672;10.064;2023-05-07T01:52:51;17.73;;;11.33;;
3274;SDS011;1649;53.672;10.064;2023-05-07T01:55:16;18.80;;;13.40;;
3274;SDS011;1649;53.672;10.064;2023-05-07T01:57:42;19.60;;;13.27;;
3274;SDS011;1649;53.672;10.064;2023-05-07T02:00:08;18.93;;;12.90;;
3274;SDS011;1649;53.672;10.064;2023-05-07T02:02:34;18.63;;;12.13;;
3274;SDS011;1649;53.672;10.064;2023-05-07T02:04:59;18.47;;;12.33;;
3274;SDS011;1649;53.672;10.064;2023-05-07T02:07:28;17.50;;;11.50;;
3274;SDS011;1649;53.672;10.064;2023-05-07T02:09:54;16.63;;;10.93;;
3274;SDS011;1649;53.672;10.064;2023-05-07T02:12:22;17.40;;;12.20;;
3274;SDS011;1649;53.672;10.064;2023-05-07T02:14:48;18.07;;;12.00;;
3274;SDS011;1649;53.672;10.064;2023-05-07T02:17:14;17.93;;;12.30;;
3274;SDS011;1649;53.672;10.064;2023-05-07T02:19:39;17.00;;;11.23;;
3274;SDS011;1649;53.672;10.064;2023-05-07T02:22:05;17.67;;;11.60;;
3274;SDS011;1649;53.672;10.064;2023-05-07T02:24:31;18.73;;;11.33;;
3274;SDS011;1649;53.672;10.064;2023-05-07T02:26:57;17.60;;;11.17;;
3274;SDS011;1649;53.672;10.064;2023-05-07T02:29:22;19.00;;;12.20;;
3274;SDS011;1649;53.672;10.064;2023-05-07T02:31:48;17.27;;;12.27;;
3274;SDS011;1649;53.672;10.064;2023-05-07T02:34:17;18.60;;;12.20;;
3274;SDS011;1649;53.672;10.064;2023-05-07T02:36:43;18.10;;;11.10;;
3274;SDS011;1649;53.672;10.064;2023-05-07T02:39:09;17.30;;;12.23;;
3274;SDS011;1649;53.672;10.064;2023-05-07T02:41:34;15.57;;;11.23;;
3274;SDS011;1649;53.672;10.064;2023-05-07T02:44:00;21.40;;;14.03;;
3274;SDS011;1649;53.672;10.064;2023-05-07T02:46:25;20.13;;;13.40;;
3274;SDS011;1649;53.672;10.064;2023-05-07T02:48:51;23.17;;;13.90;;
3274;SDS011;1649;53.672;10.064;2023-05-07T02:51:19;21.37;;;13.60;;
3274;SDS011;1649;53.672;10.064;2023-05-07T02:53:46;21.63;;;13.63;;
3274;SDS011;1649;53.672;10.064;2023-05-07T02:56:11;16.73;;;11.40;;
3274;SDS011;1649;53.672;10.064;2023-05-07T02:58:37;23.87;;;13.80;;
3274;SDS011;1649;53.672;10.064;2023-05-07T03:01:04;19.13;;;12.90;;
3274;SDS011;1649;53.672;10.064;2023-05-07T03:03:30;24.73;;;12.70;;
3274;SDS011;1649;53.672;10.064;2023-05-07T03:05:55;21.73;;;13.47;;
3274;SDS011;1649;53.672;10.064;2023-05-07T03:08:21;17.00;;;11.90;;
3274;SDS011;1649;53.672;10.064;2023-05-07T03:10:47;19.93;;;13.17;;
3274;SDS011;1649;53.672;10.064;2023-05-07T03:13:12;22.10;;;14.27;;
3274;SDS011;1649;53.672;10.064;2023-05-07T03:15:38;22.23;;;13.60;;
3274;SDS011;1649;53.672;10.064;2023-05-07T03:18:03;19.60;;;12.67;;
3274;SDS011;1649;53.672;10.064;2023-05-07T03:20:29;19.23;;;13.43;;
3274;SDS011;1649;53.672;10.064;2023-05-07T03:22:55;18.23;;;12.20;;
3274;SDS011;1649;53.672;10.064;2023-05-07T03:25:20;16.80;;;10.70;;
3274;SDS011;1649;53.672;10.064;2023-05-07T03:27:46;20.27;;;12.60;;
3274;SDS011;1649;53.672;10.064;2023-05-07T03:30:11;19.47;;;12.97;;
3274;SDS011;1649;53.672;10.064;2023-05-07T03:32:37;19.63;;;13.10;;
3274;SDS011;1649;53.672;10.064;2023-05-07T03:35:03;17.13;;;11.53;;
3274;SDS011;1649;53.672;10.064;2023-05-07T03:37:29;19.50;;;13.47;;
3274;SDS011;1649;53.672;10.064;2023-05-07T03:39:54;20.50;;;12.13;;
3274;SDS011;1649;53.672;10.064;2023-05-07T03:42:20;21.73;;;12.70;;
3274;SDS011;1649;53.672;10.064;2023-05-07T03:44:45;16.30;;;11.90;;
3274;SDS011;1649;53.672;10.064;2023-05-07T03:47:11;18.60;;;11.97;;
3274;SDS011;1649;53.672;10.064;2023-05-07T03:49:38;19.03;;;12.63;;
3274;SDS011;1649;53.672;10.064;2023-05-07T03:52:04;17.40;;;11.77;;
3274;SDS011;1649;53.672;10.064;2023-05-07T03:54:30;17.03;;;12.77;;
3274;SDS011;1649;53.672;10.064;2023-05-07T03:56:55;17.20;;;12.07;;
3274;SDS011;1649;53.672;10.064;2023-05-07T03:59:21;17.20;;;10.97;;
3274;SDS011;1649;53.672;10.064;2023-05-07T04:01:47;16.73;;;11.50;;
3274;SDS011;1649;53.672;10.064;2023-05-07T04:04:13;16.53;;;11.57;;
3274;SDS011;1649;53.672;10.064;2023-05-07T04:06:39;18.40;;;12.77;;
3274;SDS011;1649;53.672;10.064;2023-05-07T04:09:06;18.53;;;12.23;;
3274;SDS011;1649;53.672;10.064;2023-05-07T04:11:31;16.77;;;11.40;;
3274;SDS011;1649;53.672;10.064;2023-05-07T04:13:57;18.90;;;13.17;;
3274;SDS011;1649;53.672;10.064;2023-05-07T04:16:22;16.33;;;11.33;;
3274;SDS011;1649;53.672;10.064;2023-05-07T04:18:48;20.10;;;12.10;;
3274;SDS011;1649;53.672;10.064;2023-05-07T04:21:17;16.83;;;11.43;;
3274;SDS011;1649;53.672;10.064;2023-05-07T04:23:43;17.77;;;11.97;;
3274;SDS011;1649;53.672;10.064;2023-05-07T04:26:09;18.33;;;11.27;;
3274;SDS011;1649;53.672;10.064;2023-05-07T04:28:35;17.70;;;12.00;;
3274;SDS011;1649;53.672;10.064;2023-05-07T04:31:01;19.10;;;12.50;;
3274;SDS011;1649;53.672;10.064;2023-05-07T04:33:26;15.00;;;10.60;;
3274;SDS011;1649;53.672;10.064;2023-05-07T04:35:52;15.67;;;10.87;;
3274;SDS011;1649;53.672;10.064;2023-05-07T04:38:17;16.23;;;11.07;;
3274;SDS011;1649;53.672;10.064;2023-05-07T04:40:43;14.93;;;10.67;;
3274;SDS011;1649;53.672;10.064;2023-05-07T04:43:09;16.17;;;11.43;;
3274;SDS011;1649;53.672;10.064;2023-05-07T04:45:35;16.90;;;11.43;;
3274;SDS011;1649;53.672;10.064;2023-05-07T04:48:01;18.57;;;11.87;;
3274;SDS011;1649;53.672;10.064;2023-05-07T04:50:26;17.10;;;11.20;;
3274;SDS011;1649;53.672;10.064;2023-05-07T04:52:52;19.03;;;11.27;;
3274;SDS011;1649;53.672;10.064;2023-05-07T04:55:17;19.40;;;11.90;;
3274;SDS011;1649;53.672;10.064;2023-05-07T04:57:43;16.00;;;10.33;;
3274;SDS011;1649;53.672;10.064;2023-05-07T05:00:08;17.37;;;11.13;;
3274;SDS011;1649;53.672;10.064;2023-05-07T05:02:35;17.07;;;11.50;;
3274;SDS011;1649;53.672;10.064;2023-05-07T05:05:00;19.13;;;11.63;;
3274;SDS011;1649;53.672;10.064;2023-05-07T05:07:29;18.60;;;10.93;;
3274;SDS011;1649;53.672;10.064;2023-05-07T05:09:54;14.50;;;10.30;;
3274;SDS011;1649;53.672;10.064;2023-05-07T05:12:20;17.07;;;11.50;;
3274;SDS011;1649;53.672;10.064;2023-05-07T05:14:46;15.40;;;10.70;;
3274;SDS011;1649;53.672;10.064;2023-05-07T05:17:12;15.50;;;9.90;;
3274;SDS011;1649;53.672;10.064;2023-05-07T05:19:37;15.27;;;10.40;;
3274;SDS011;1649;53.672;10.064;2023-05-07T05:22:03;15.73;;;10.30;;
3274;SDS011;1649;53.672;10.064;2023-05-07T05:24:29;14.00;;;9.30;;
3274;SDS011;1649;53.672;10.064;2023-05-07T05:26:55;14.60;;;10.53;;
3274;SDS011;1649;53.672;10.064;2023-05-07T05:29:21;14.00;;;9.80;;
3274;SDS011;1649;53.672;10.064;2023-05-07T05:31:46;16.17;;;10.00;;
3274;SDS011;1649;53.672;10.064;2023-05-07T05:34:12;14.17;;;9.40;;
3274;SDS011;1649;53.672;10.064;2023-05-07T05:36:37;15.30;;;10.40;;
3274;SDS011;1649;53.672;10.064;2023-05-07T05:39:03;14.17;;;8.47;;
3274;SDS011;1649;53.672;10.064;2023-05-07T05:41:29;14.20;;;9.33;;
3274;SDS011;1649;53.672;10.064;2023-05-07T05:43:54;16.40;;;10.07;;
3274;SDS011;1649;53.672;10.064;2023-05-07T05:46:20;14.50;;;9.63;;
3274;SDS011;1649;53.672;10.064;2023-05-07T05:48:46;12.40;;;9.30;;
3274;SDS011;1649;53.672;10.064;2023-05-07T05:51:11;14.80;;;10.23;;
3274;SDS011;1649;53.672;10.064;2023-05-07T05:53:37;13.43;;;9.30;;
3274;SDS011;1649;53.672;10.064;2023-05-07T05:56:02;14.33;;;10.70;;
3274;SDS011;1649;53.672;10.064;2023-05-07T05:58:28;15.33;;;9.70;;
3274;SDS011;1649;53.672;10.064;2023-05-07T06:00:54;14.80;;;10.30;;
3274;SDS011;1649;53.672;10.064;2023-05-07T06:03:20;17.03;;;10.63;;
3274;SDS011;1649;53.672;10.064;2023-05-07T06:05:45;14.40;;;10.40;;
3274;SDS011;1649;53.672;10.064;2023-05-07T06:08:11;13.33;;;9.63;;
3274;SDS011;1649;53.672;10.064;2023-05-07T06:10:37;15.00;;;10.73;;
3274;SDS011;1649;53.672;10.064;2023-05-07T06:13:02;13.60;;;9.77;;
3274;SDS011;1649;53.672;10.064;2023-05-07T06:15:28;13.60;;;9.40;;
3274;SDS011;1649;53.672;10.064;2023-05-07T06:17:53;14.17;;;9.40;;
3274;SDS011;1649;53.672;10.064;2023-05-07T06:20:20;14.93;;;9.67;;
3274;SDS011;1649;53.672;10.064;2023-05-07T06:22:46;14.10;;;9.90;;
3274;SDS011;1649;53.672;10.064;2023-05-07T06:25:11;16.33;;;9.90;;
3274;SDS011;1649;53.672;10.064;2023-05-07T06:27:37;14.17;;;9.60;;
3274;SDS011;1649;53.672;10.064;2023-05-07T06:30:04;13.53;;;9.20;;
3274;SDS011;1649;53.672;10.064;2023-05-07T06:32:31;14.00;;;9.03;;
3274;SDS011;1649;53.672;10.064;2023-05-07T06:34:56;13.60;;;9.60;;
3274;SDS011;1649;53.672;10.064;2023-05-07T06:37:22;12.40;;;8.77;;
3274;SDS011;1649;53.672;10.064;2023-05-07T06:39:47;14.23;;;9.43;;
3274;SDS011;1649;53.672;10.064;2023-05-07T06:42:13;14.53;;;9.07;;
3274;SDS011;1649;53.672;10.064;2023-05-07T06:44:38;12.20;;;9.60;;
3274;SDS011;1649;53.672;10.064;2023-05-07T06:47:04;13.30;;;9.17;;
3274;SDS011;1649;53.672;10.064;2023-05-07T06:49:30;12.90;;;8.67;;
3274;SDS011;1649;53.672;10.064;2023-05-07T06:51:56;12.20;;;8.50;;
3274;SDS011;1649;53.672;10.064;2023-05-07T06:54:22;13.70;;;8.57;;
3274;SDS011;1649;53.672;10.064;2023-05-07T06:56:47;13.37;;;9.37;;
3274;SDS011;1649;53.672;10.064;2023-05-07T06:59:13;12.27;;;8.47;;
3274;SDS011;1649;53.672;10.064;2023-05-07T07:01:38;14.40;;;8.60;;
3274;SDS011;1649;53.672;10.064;2023-05-07T07:04:04;12.50;;;9.03;;
3274;SDS011;1649;53.672;10.064;2023-05-07T07:06:30;12.03;;;8.43;;
3274;SDS011;1649;53.672;10.064;2023-05-07T07:08:56;12.53;;;8.57;;
3274;SDS011;1649;53.672;10.064;2023-05-07T07:11:22;13.60;;;7.77;;
3274;SDS011;1649;53.672;10.064;2023-05-07T07:13:48;17.87;;;9.07;;
3274;SDS011;1649;53.672;10.064;2023-05-07T07:16:13;12.53;;;8.17;;
3274;SDS011;1649;53.672;10.064;2023-05-07T07:18:39;12.07;;;8.47;;
3274;SDS011;1649;53.672;10.064;2023-05-07T07:21:04;10.70;;;7.80;;
3274;SDS011;1649;53.672;10.064;2023-05-07T07:23:30;11.97;;;8.43;;
3274;SDS011;1649;53.672;10.064;2023-05-07T07:25:56;11.60;;;8.00;;
3274;SDS011;1649;53.672;10.064;2023-05-07T07:28:21;10.23;;;7.10;;
3274;SDS011;1649;53.672;10.064;2023-05-07T07:30:47;11.27;;;8.27;;
3274;SDS011;1649;53.672;10.064;2023-05-07T07:33:12;10.70;;;7.50;;
3274;SDS011;1649;53.672;10.064;2023-05-07T07:35:38;12.17;;;7.20;;
3274;SDS011;1649;53.672;10.064;2023-05-07T07:38:03;10.37;;;7.40;;
3274;SDS011;1649;53.672;10.064;2023-05-07T07:40:29;10.50;;;7.60;;
3274;SDS011;1649;53.672;10.064;2023-05-07T07:42:54;11.50;;;8.00;;
3274;SDS011;1649;53.672;10.064;2023-05-07T07:45:21;11.43;;;7.73;;
3274;SDS011;1649;53.672;10.064;2023-05-07T07:47:46;10.33;;;8.17;;
3274;SDS011;1649;53.672;10.064;2023-05-07T07:50:12;10.63;;;7.87;;
3274;SDS011;1649;53.672;10.064;2023-05-07T07:52:37;10.80;;;7.90;;
3274;SDS011;1649;53.672;10.064;2023-05-07T07:55:03;11.53;;;7.60;;
3274;SDS011;1649;53.672;10.064;2023-05-07T07:57:29;11.60;;;7.73;;
3274;SDS011;1649;53.672;10.064;2023-05-07T07:59:55;12.00;;;8.33;;
3274;SDS011;1649;53.672;10.064;2023-05-07T08:02:21;13.60;;;8.00;;
3274;SDS011;1649;53.672;10.064;2023-05-07T08:04:46;12.03;;;8.60;;
3274;SDS011;1649;53.672;10.064;2023-05-07T08:07:12;12.20;;;8.70;;
3274;SDS011;1649;53.672;10.064;2023-05-07T08:09:38;10.87;;;7.50;;
3274;SDS011;1649;53.672;10.064;2023-05-07T08:12:04;11.87;;;8.17;;
3274;SDS011;1649;53.672;10.064;2023-05-07T08:14:31;11.37;;;7.43;;
3274;SDS011;1649;53.672;10.064;2023-05-07T08:16:56;11.30;;;7.37;;
3274;SDS011;1649;53.672;10.064;2023-05-07T08:19:22;11.13;;;7.63;;
3274;SDS011;1649;53.672;10.064;2023-05-07T08:21:47;10.20;;;7.70;;
3274;SDS011;1649;53.672;10.064;2023-05-07T08:24:14;9.93;;;7.10;;
3274;SDS011;1649;53.672;10.064;2023-05-07T08:26:40;10.03;;;7.47;;
3274;SDS011;1649;53.672;10.064;2023-05-07T08:29:06;10.93;;;7.23;;
3274;SDS011;1649;53.672;10.064;2023-05-07T08:31:31;11.97;;;7.90;;
3274;SDS011;1649;53.672;10.064;2023-05-07T08:33:57;9.60;;;6.80;;
3274;SDS011;1649;53.672;10.064;2023-05-07T08:36:23;13.00;;;8.73;;
3274;SDS011;1649;53.672;10.064;2023-05-07T08:38:48;10.60;;;7.40;;
3274;SDS011;1649;53.672;10.064;2023-05-07T08:41:14;10.40;;;7.40;;
3274;SDS011;1649;53.672;10.064;2023-05-07T08:43:41;10.33;;;7.07;;
3274;SDS011;1649;53.672;10.064;2023-05-07T08:46:06;8.70;;;6.10;;
3274;SDS011;1649;53.672;10.064;2023-05-07T08:48:34;10.73;;;7.13;;
3274;SDS011;1649;53.672;10.064;2023-05-07T08:51:00;10.70;;;7.93;;
3274;SDS011;1649;53.672;10.064;2023-05-07T08:53:26;8.67;;;6.53;;
3274;SDS011;1649;53.672;10.064;2023-05-07T08:55:52;9.90;;;7.00;;
3274;SDS011;1649;53.672;10.064;2023-05-07T08:58:18;10.23;;;6.83;;
3274;SDS011;1649;53.672;10.064;2023-05-07T09:00:44;10.23;;;7.60;;
3274;SDS011;1649;53.672;10.064;2023-05-07T09:03:10;9.63;;;6.83;;
3274;SDS011;1649;53.672;10.064;2023-05-07T09:05:39;10.83;;;7.10;;
3274;SDS011;1649;53.672;10.064;2023-05-07T09:08:05;9.93;;;6.80;;
3274;SDS011;1649;53.672;10.064;2023-05-07T09:10:35;14.90;;;10.00;;
3274;SDS011;1649;53.672;10.064;2023-05-07T09:13:00;10.20;;;6.63;;
3274;SDS011;1649;53.672;10.064;2023-05-07T09:15:28;10.03;;;7.43;;
3274;SDS011;1649;53.672;10.064;2023-05-07T09:17:53;8.93;;;6.50;;
3274;SDS011;1649;53.672;10.064;2023-05-07T09:20:19;9.63;;;7.07;;
3274;SDS011;1649;53.672;10.064;2023-05-07T09:22:45;9.77;;;6.90;;
3274;SDS011;1649;53.672;10.064;2023-05-07T09:25:10;10.80;;;7.80;;
3274;SDS011;1649;53.672;10.064;2023-05-07T09:27:36;10.33;;;7.27;;
3274;SDS011;1649;53.672;10.064;2023-05-07T09:30:05;10.10;;;7.37;;
3274;SDS011;1649;53.672;10.064;2023-05-07T09:32:34;10.43;;;7.43;;
3274;SDS011;1649;53.672;10.064;2023-05-07T09:35:00;11.30;;;7.17;;
3274;SDS011;1649;53.672;10.064;2023-05-07T09:37:27;10.43;;;6.87;;
3274;SDS011;1649;53.672;10.064;2023-05-07T09:39:55;9.90;;;6.40;;
3274;SDS011;1649;53.672;10.064;2023-05-07T09:42:24;10.90;;;7.33;;
3274;SDS011;1649;53.672;10.064;2023-05-07T09:44:52;10.20;;;6.80;;
3274;SDS011;1649;53.672;10.064;2023-05-07T09:47:18;12.13;;;6.40;;
3274;SDS011;1649;53.672;10.064;2023-05-07T09:49:46;10.10;;;6.50;;
3274;SDS011;1649;53.672;10.064;2023-05-07T09:52:13;8.77;;;5.97;;
3274;SDS011;1649;53.672;10.064;2023-05-07T09:54:39;10.40;;;6.77;;
3274;SDS011;1649;53.672;10.064;2023-05-07T09:57:08;9.40;;;7.07;;
3274;SDS011;1649;53.672;10.064;2023-05-07T09:59:36;10.03;;;6.37;;
3274;SDS011;1649;53.672;10.064;2023-05-07T10:02:03;9.83;;;6.77;;
3274;SDS011;1649;53.672;10.064;2023-05-07T10:04:29;8.67;;;6.30;;
3274;SDS011;1649;53.672;10.064;2023-05-07T10:06:56;11.50;;;6.83;;
3274;SDS011;1649;53.672;10.064;2023-05-07T10:09:23;8.63;;;6.57;;
3274;SDS011;1649;53.672;10.064;2023-05-07T10:11:51;8.63;;;6.40;;
3274;SDS011;1649;53.672;10.064;2023-05-07T10:14:17;11.10;;;7.30;;
3274;SDS011;1649;53.672;10.064;2023-05-07T10:16:44;14.27;;;6.97;;
3274;SDS011;1649;53.672;10.064;2023-05-07T10:19:11;9.47;;;6.60;;
3274;SDS011;1649;53.672;10.064;2023-05-07T10:21:37;10.27;;;7.03;;
3274;SDS011;1649;53.672;10.064;2023-05-07T10:24:19;9.67;;;6.87;;
3274;SDS011;1649;53.672;10.064;2023-05-07T10:26:53;8.53;;;5.90;;
3274;SDS011;1649;53.672;10.064;2023-05-07T10:29:25;10.80;;;6.70;;
3274;SDS011;1649;53.672;10.064;2023-05-07T10:34:29;12.20;;;6.20;;
3274;SDS011;1649;53.672;10.064;2023-05-07T10:37:01;8.70;;;5.70;;
3274;SDS011;1649;53.672;10.064;2023-05-07T10:39:28;13.97;;;6.43;;
3274;SDS011;1649;53.672;10.064;2023-05-07T10:41:53;8.73;;;5.60;;
3274;SDS011;1649;53.672;10.064;2023-05-07T10:44:26;8.60;;;5.80;;
3274;SDS011;1649;53.672;10.064;2023-05-07T10:47:03;8.27;;;5.90;;
3274;SDS011;1649;53.672;10.064;2023-05-07T10:49:37;7.83;;;5.43;;
3274;SDS011;1649;53.672;10.064;2023-05-07T10:54:39;7.63;;;5.77;;
3274;SDS011;1649;53.672;10.064;2023-05-07T11:00:02;7.30;;;4.87;;
3274;SDS011;1649;53.672;10.064;2023-05-07T11:05:29;7.20;;;5.13;;
3274;SDS011;1649;53.672;10.064;2023-05-07T11:07:57;8.57;;;5.40;;
3274;SDS011;1649;53.672;10.064;2023-05-07T11:10:47;8.50;;;5.30;;
3274;SDS011;1649;53.672;10.064;2023-05-07T11:16:19;7.60;;;4.70;;
3274;SDS011;1649;53.672;10.064;2023-05-07T11:18:49;7.03;;;4.70;;
3274;SDS011;1649;53.672;10.064;2023-05-07T11:21:32;7.73;;;5.33;;
3274;SDS011;1649;53.672;10.064;2023-05-07T11:24:01;8.23;;;5.30;;
3274;SDS011;1649;53.672;10.064;2023-05-07T11:26:28;7.10;;;5.20;;
3274;SDS011;1649;53.672;10.064;2023-05-07T11:28:56;8.80;;;5.00;;
3274;SDS011;1649;53.672;10.064;2023-05-07T11:31:23;8.47;;;5.63;;
3274;SDS011;1649;53.672;10.064;2023-05-07T11:33:51;7.70;;;4.93;;
3274;SDS011;1649;53.672;10.064;2023-05-07T11:36:16;8.17;;;5.90;;
3274;SDS011;1649;53.672;10.064;2023-05-07T11:38:44;8.03;;;5.47;;
3274;SDS011;1649;53.672;10.064;2023-05-07T11:41:09;7.83;;;5.07;;
3274;SDS011;1649;53.672;10.064;2023-05-07T11:43:35;9.87;;;5.40;;
3274;SDS011;1649;53.672;10.064;2023-05-07T11:46:08;10.37;;;5.40;;
3274;SDS011;1649;53.672;10.064;2023-05-07T11:48:35;9.10;;;5.50;;
3274;SDS011;1649;53.672;10.064;2023-05-07T11:51:01;7.70;;;4.70;;
3274;SDS011;1649;53.672;10.064;2023-05-07T11:53:34;7.60;;;4.83;;
3274;SDS011;1649;53.672;10.064;2023-05-07T11:58:40;8.00;;;4.67;;
3274;SDS011;1649;53.672;10.064;2023-05-07T12:01:08;8.67;;;4.43;;
3274;SDS011;1649;53.672;10.064;2023-05-07T12:03:34;7.83;;;4.37;;
3274;SDS011;1649;53.672;10.064;2023-05-07T12:06:02;7.10;;;4.83;;
3274;SDS011;1649;53.672;10.064;2023-05-07T12:08:27;6.67;;;3.97;;
3274;SDS011;1649;53.672;10.064;2023-05-07T12:10:53;7.80;;;4.20;;
3274;SDS011;1649;53.672;10.064;2023-05-07T12:13:20;7.43;;;4.43;;
3274;SDS011;1649;53.672;10.064;2023-05-07T12:15:51;6.10;;;3.93;;
3274;SDS011;1649;53.672;10.064;2023-05-07T12:18:18;7.03;;;4.40;;
3274;SDS011;1649;53.672;10.064;2023-05-07T12:20:44;7.60;;;4.67;;
3274;SDS011;1649;53.672;10.064;2023-05-07T12:23:10;6.47;;;4.50;;
3274;SDS011;1649;53.672;10.064;2023-05-07T12:25:37;6.50;;;4.37;;
3274;SDS011;1649;53.672;10.064;2023-05-07T12:28:03;6.77;;;3.80;;
3274;SDS011;1649;53.672;10.064;2023-05-07T12:30:39;6.43;;;4.30;;
3274;SDS011;1649;53.672;10.064;2023-05-07T12:33:04;6.10;;;3.50;;
3274;SDS011;1649;53.672;10.064;2023-05-07T12:35:31;6.10;;;3.97;;
3274;SDS011;1649;53.672;10.064;2023-05-07T12:38:01;6.23;;;3.80;;
3274;SDS011;1649;53.672;10.064;2023-05-07T12:40:35;6.57;;;4.27;;
3274;SDS011;1649;53.672;10.064;2023-05-07T12:43:01;7.83;;;4.30;;
3274;SDS011;1649;53.672;10.064;2023-05-07T12:45:27;7.60;;;4.30;;
3274;SDS011;1649;53.672;10.064;2023-05-07T12:47:52;5.40;;;3.40;;
3274;SDS011;1649;53.672;10.064;2023-05-07T12:50:18;6.00;;;3.80;;
3274;SDS011;1649;53.672;10.064;2023-05-07T12:52:45;6.60;;;3.80;;
3274;SDS011;1649;53.672;10.064;2023-05-07T12:55:12;6.27;;;3.47;;
3274;SDS011;1649;53.672;10.064;2023-05-07T12:57:41;5.90;;;3.53;;
3274;SDS011;1649;53.672;10.064;2023-05-07T13:00:08;6.57;;;3.57;;
3274;SDS011;1649;53.672;10.064;2023-05-07T13:02:37;8.73;;;3.73;;
3274;SDS011;1649;53.672;10.064;2023-05-07T13:05:04;8.10;;;3.80;;
3274;SDS011;1649;53.672;10.064;2023-05-07T13:07:29;6.40;;;3.47;;
3274;SDS011;1649;53.672;10.064;2023-05-07T13:09:55;6.57;;;3.50;;
3274;SDS011;1649;53.672;10.064;2023-05-07T13:12:20;5.87;;;3.20;;
3274;SDS011;1649;53.672;10.064;2023-05-07T13:14:46;6.40;;;3.63;;
3274;SDS011;1649;53.672;10.064;2023-05-07T13:17:12;6.47;;;3.27;;
3274;SDS011;1649;53.672;10.064;2023-05-07T13:19:37;9.60;;;3.70;;
3274;SDS011;1649;53.672;10.064;2023-05-07T13:22:03;6.00;;;3.63;;
3274;SDS011;1649;53.672;10.064;2023-05-07T13:24:29;5.20;;;3.07;;
3274;SDS011;1649;53.672;10.064;2023-05-07T13:26:54;7.03;;;3.50;;
3274;SDS011;1649;53.672;10.064;2023-05-07T13:29:20;6.73;;;2.93;;
3274;SDS011;1649;53.672;10.064;2023-05-07T13:31:53;5.40;;;3.10;;
3274;SDS011;1649;53.672;10.064;2023-05-07T13:34:19;5.20;;;3.10;;
3274;SDS011;1649;53.672;10.064;2023-05-07T13:36:44;5.90;;;3.60;;
3274;SDS011;1649;53.672;10.064;2023-05-07T13:39:10;6.90;;;3.83;;
3274;SDS011;1649;53.672;10.064;2023-05-07T13:41:35;5.60;;;3.00;;
3274;SDS011;1649;53.672;10.064;2023-05-07T13:44:01;6.33;;;3.40;;
3274;SDS011;1649;53.672;10.064;2023-05-07T13:46:26;5.00;;;2.90;;
3274;SDS011;1649;53.672;10.064;2023-05-07T13:48:52;6.33;;;3.23;;
3274;SDS011;1649;53.672;10.064;2023-05-07T13:51:17;5.80;;;3.40;;
3274;SDS011;1649;53.672;10.064;2023-05-07T13:53:43;5.63;;;3.00;;
3274;SDS011;1649;53.672;10.064;2023-05-07T13:56:08;4.97;;;2.83;;
3274;SDS011;1649;53.672;10.064;2023-05-07T13:58:34;7.13;;;3.30;;
3274;SDS011;1649;53.672;10.064;2023-05-07T14:01:01;5.80;;;2.80;;
3274;SDS011;1649;53.672;10.064;2023-05-07T14:03:26;5.17;;;2.97;;
3274;SDS011;1649;53.672;10.064;2023-05-07T14:05:52;5.00;;;2.80;;
3274;SDS011;1649;53.672;10.064;2023-05-07T14:08:17;5.13;;;2.77;;
3274;SDS011;1649;53.672;10.064;2023-05-07T14:10:45;6.60;;;2.70;;
3274;SDS011;1649;53.672;10.064;2023-05-07T14:13:11;5.00;;;2.67;;
3274;SDS011;1649;53.672;10.064;2023-05-07T14:15:36;6.40;;;2.93;;
3274;SDS011;1649;53.672;10.064;2023-05-07T14:18:02;5.13;;;3.00;;
3274;SDS011;1649;53.672;10.064;2023-05-07T14:20:28;5.47;;;3.13;;
3274;SDS011;1649;53.672;10.064;2023-05-07T14:22:55;6.27;;;2.60;;
3274;SDS011;1649;53.672;10.064;2023-05-07T14:25:20;5.90;;;3.30;;
3274;SDS011;1649;53.672;10.064;2023-05-07T14:27:46;7.03;;;3.30;;
3274;SDS011;1649;53.672;10.064;2023-05-07T14:30:11;5.40;;;3.17;;
3274;SDS011;1649;53.672;10.064;2023-05-07T14:32:37;5.77;;;2.97;;
3274;SDS011;1649;53.672;10.064;2023-05-07T14:35:03;4.87;;;2.90;;
3274;SDS011;1649;53.672;10.064;2023-05-07T14:37:28;5.07;;;2.67;;
3274;SDS011;1649;53.672;10.064;2023-05-07T14:39:54;6.33;;;2.80;;
3274;SDS011;1649;53.672;10.064;2023-05-07T14:42:20;5.60;;;3.10;;
3274;SDS011;1649;53.672;10.064;2023-05-07T14:44:45;6.37;;;3.17;;
3274;SDS011;1649;53.672;10.064;2023-05-07T14:47:12;5.40;;;3.07;;
3274;SDS011;1649;53.672;10.064;2023-05-07T14:49:38;6.10;;;2.97;;
3274;SDS011;1649;53.672;10.064;2023-05-07T14:52:03;6.00;;;3.20;;
3274;SDS011;1649;53.672;10.064;2023-05-07T14:54:30;5.73;;;3.40;;
3274;SDS011;1649;53.672;10.064;2023-05-07T14:56:59;6.90;;;3.30;;
3274;SDS011;1649;53.672;10.064;2023-05-07T14:59:25;5.67;;;3.07;;